Evans, CO

11:12 PM MDT on October 25, 2014 (GMT -0600)
Greeley-Weld County | Change Station
CLOSE
Current Station
Airport
Location: Greeley,
Elevation: 4698 ft
Nearby Weather Stations

Elev 4698 ft 40.44 °N, 104.63 °W | Updated 17 minutes ago

Clear
Clear
45 °F
Feels Like 43 °F
N
4
Wind Variable Wind from NNW

Today
High -- | Low -- °F
--% Chance of Precip.
Yesterday
High -- | Low -- °F
Precip. -- in
7:20 AM 6:04 PM
Waxing Crescent, 6% visible
Pressure 29.98 in
Visibility 10.0 miles
Clouds Clear
Windchill 43 °F
Dew Point 27 °F
Humidity 49%
Rainfall 0.00 in
Snow Depth Not available.
UV 0 out of 12
Pollen 2.90 out of 12
Ozone Good
PM2.5 Moderate
Flu Activity Sporadic
METAR KGXY 260455Z AUTO 33003KT 10SM CLR 07/M03 A2998 RMK AO1

More Conditions Fewer Conditions

Pressure 29.98 in
Visibility 10.0 miles
Clouds Clear
Windchill 43 °F
Dew Point 27 °F
Humidity 49%
Rainfall 0.00 in
Snow Depth Not available.
UV 0 out of 12
Pollen 2.90 out of 12
Ozone Good
PM2.5 Moderate
Flu Activity Sporadic
METAR KGXY 260455Z AUTO 33003KT 10SM CLR 07/M03 A2998 RMK AO1

More Conditions Fewer Conditions

10-Day Weather Forecast

Almanac

Astronomy

Oct. 25, 2014 Rise Set
Actual Time 7:20 AM MDT 6:04 PM MDT
Civil Twilight 6:52 AM MDT 6:32 PM MDT
Nautical Twilight 6:20 AM MDT 7:04 PM MDT
Astronomical Twilight 5:49 AM MDT 7:35 PM MDT
Moon 9:02 AM MDT (10/25) 7:29 PM MDT (10/25)
Length of Visible Light 11h 39m
Length of Day
10h 43m
Tomorrow will be 2m 27s shorter.
Waxing Crescent, 6% of the Moon is Illuminated
Oct 26
Waxing Crescent
Oct 30
First Quarter
Nov 6
Full
Nov 14
Last Quarter
Nov 22
New

Yesterday's Extremes

State Highs State Lows

Community

WunderPhotos

Upload Photos

1,765,111 photos uploaded!

Nearby

Air Quality

  Air Quality AQ Index Pollutant
Yesterday Good
OZONE
Yesterday Good
PM2.5
Current Moderate
PM2.5
Current Good
OZONE
Saturday Good
PM2.5
Saturday Good
OZONE
Sunday Good
PM2.5
Sunday Good
OZONE
Monday Good
PM2.5
Monday Good
OZONE

Snow Depth

Station Depth Elevation
Copeland Lake 0 in 8600 ft
Wild Basin 1 in 9560 ft
Niwot 0 in 9910 ft
University Camp 0 in 10300 ft
Lake Eldora 1 in 9700 ft

Earthquake Activity

City Distance Mag. Time & Date
No recent earthquake activity has been reported nearby.
Minimum magnitude displayed is 2.5.

Coastal Water Temperatures

Place Temperature
No Stations Reporting

Nearby Weather Stations